sensor_id;sensor_type;location;lat;lon;timestamp;P1;durP1;ratioP1;P2;durP2;ratioP2
43142;SDS011;28750;59.842;17.584;2022-11-25T00:01:52;2.30;;;2.05;;
43142;SDS011;28750;59.842;17.584;2022-11-25T00:04:33;2.97;;;2.15;;
43142;SDS011;28750;59.842;17.584;2022-11-25T00:07:14;6.18;;;2.83;;
43142;SDS011;28750;59.842;17.584;2022-11-25T00:09:56;3.67;;;2.55;;
43142;SDS011;28750;59.842;17.584;2022-11-25T00:12:33;3.72;;;2.25;;
43142;SDS011;28750;59.842;17.584;2022-11-25T00:15:14;2.92;;;2.55;;
43142;SDS011;28750;59.842;17.584;2022-11-25T00:17:58;3.35;;;2.33;;
43142;SDS011;28750;59.842;17.584;2022-11-25T00:20:39;2.35;;;1.73;;
43142;SDS011;28750;59.842;17.584;2022-11-25T00:23:16;2.53;;;1.80;;
43142;SDS011;28750;59.842;17.584;2022-11-25T00:25:54;2.70;;;2.25;;
43142;SDS011;28750;59.842;17.584;2022-11-25T00:28:21;2.33;;;2.13;;
43142;SDS011;28750;59.842;17.584;2022-11-25T00:30:51;4.22;;;2.30;;
43142;SDS011;28750;59.842;17.584;2022-11-25T00:33:27;2.67;;;2.45;;
43142;SDS011;28750;59.842;17.584;2022-11-25T00:36:13;3.63;;;2.85;;
43142;SDS011;28750;59.842;17.584;2022-11-25T00:39:03;5.75;;;2.97;;
43142;SDS011;28750;59.842;17.584;2022-11-25T00:41:49;5.80;;;2.75;;
43142;SDS011;28750;59.842;17.584;2022-11-25T00:44:39;3.90;;;3.17;;
43142;SDS011;28750;59.842;17.584;2022-11-25T00:47:20;3.78;;;2.90;;
43142;SDS011;28750;59.842;17.584;2022-11-25T00:49:58;3.72;;;2.83;;
43142;SDS011;28750;59.842;17.584;2022-11-25T00:52:40;4.22;;;2.85;;
43142;SDS011;28750;59.842;17.584;2022-11-25T00:55:22;3.35;;;2.15;;
43142;SDS011;28750;59.842;17.584;2022-11-25T00:58:25;4.05;;;2.90;;
43142;SDS011;28750;59.842;17.584;2022-11-25T01:01:04;6.57;;;2.72;;
43142;SDS011;28750;59.842;17.584;2022-11-25T01:03:44;3.17;;;2.20;;
43142;SDS011;28750;59.842;17.584;2022-11-25T01:08:50;3.45;;;2.55;;
43142;SDS011;28750;59.842;17.584;2022-11-25T01:11:18;2.85;;;1.98;;
43142;SDS011;28750;59.842;17.584;2022-11-25T01:13:47;4.72;;;2.38;;
43142;SDS011;28750;59.842;17.584;2022-11-25T01:16:16;3.17;;;2.72;;
43142;SDS011;28750;59.842;17.584;2022-11-25T01:18:44;3.28;;;2.60;;
43142;SDS011;28750;59.842;17.584;2022-11-25T01:21:12;3.50;;;3.00;;
43142;SDS011;28750;59.842;17.584;2022-11-25T01:23:41;4.05;;;2.72;;
43142;SDS011;28750;59.842;17.584;2022-11-25T01:26:12;6.47;;;2.90;;
43142;SDS011;28750;59.842;17.584;2022-11-25T01:28:41;3.35;;;2.80;;
43142;SDS011;28750;59.842;17.584;2022-11-25T01:31:09;5.28;;;2.72;;
43142;SDS011;28750;59.842;17.584;2022-11-25T01:33:38;2.88;;;2.38;;
43142;SDS011;28750;59.842;17.584;2022-11-25T01:36:09;5.30;;;3.15;;
43142;SDS011;28750;59.842;17.584;2022-11-25T01:38:38;2.88;;;2.35;;
43142;SDS011;28750;59.842;17.584;2022-11-25T01:41:06;2.92;;;2.08;;
43142;SDS011;28750;59.842;17.584;2022-11-25T01:43:34;3.25;;;2.42;;
43142;SDS011;28750;59.842;17.584;2022-11-25T01:46:11;3.88;;;2.25;;
43142;SDS011;28750;59.842;17.584;2022-11-25T01:49:09;3.08;;;2.13;;
43142;SDS011;28750;59.842;17.584;2022-11-25T01:51:54;2.60;;;2.22;;
43142;SDS011;28750;59.842;17.584;2022-11-25T01:55:18;3.30;;;2.72;;
43142;SDS011;28750;59.842;17.584;2022-11-25T01:57:42;4.90;;;2.42;;
43142;SDS011;28750;59.842;17.584;2022-11-25T02:00:19;3.38;;;2.55;;
43142;SDS011;28750;59.842;17.584;2022-11-25T02:02:47;5.47;;;2.70;;
43142;SDS011;28750;59.842;17.584;2022-11-25T02:08:19;4.15;;;2.42;;
43142;SDS011;28750;59.842;17.584;2022-11-25T02:10:49;4.78;;;2.72;;
43142;SDS011;28750;59.842;17.584;2022-11-25T02:13:19;2.90;;;2.30;;
43142;SDS011;28750;59.842;17.584;2022-11-25T02:15:48;2.67;;;2.40;;
43142;SDS011;28750;59.842;17.584;2022-11-25T02:18:15;3.17;;;2.88;;
43142;SDS011;28750;59.842;17.584;2022-11-25T02:20:42;4.38;;;2.90;;
43142;SDS011;28750;59.842;17.584;2022-11-25T02:23:31;2.53;;;2.20;;
43142;SDS011;28750;59.842;17.584;2022-11-25T02:25:59;7.07;;;2.88;;
43142;SDS011;28750;59.842;17.584;2022-11-25T02:28:28;3.28;;;2.60;;
43142;SDS011;28750;59.842;17.584;2022-11-25T02:30:56;2.63;;;2.33;;
43142;SDS011;28750;59.842;17.584;2022-11-25T02:33:23;2.85;;;2.35;;
43142;SDS011;28750;59.842;17.584;2022-11-25T02:35:51;2.28;;;2.03;;
43142;SDS011;28750;59.842;17.584;2022-11-25T02:38:29;2.90;;;2.13;;
43142;SDS011;28750;59.842;17.584;2022-11-25T02:41:15;2.72;;;2.25;;
43142;SDS011;28750;59.842;17.584;2022-11-25T02:43:49;3.95;;;2.70;;
43142;SDS011;28750;59.842;17.584;2022-11-25T02:46:27;2.72;;;2.05;;
43142;SDS011;28750;59.842;17.584;2022-11-25T02:49:07;2.85;;;2.42;;
43142;SDS011;28750;59.842;17.584;2022-11-25T02:51:47;3.22;;;2.13;;
43142;SDS011;28750;59.842;17.584;2022-11-25T02:54:24;3.63;;;2.90;;
43142;SDS011;28750;59.842;17.584;2022-11-25T02:57:00;2.80;;;2.40;;
43142;SDS011;28750;59.842;17.584;2022-11-25T02:59:41;6.80;;;2.20;;
43142;SDS011;28750;59.842;17.584;2022-11-25T03:02:18;2.58;;;2.15;;
43142;SDS011;28750;59.842;17.584;2022-11-25T03:04:50;2.67;;;2.20;;
43142;SDS011;28750;59.842;17.584;2022-11-25T03:07:17;3.38;;;2.53;;
43142;SDS011;28750;59.842;17.584;2022-11-25T03:09:44;3.55;;;2.45;;
43142;SDS011;28750;59.842;17.584;2022-11-25T03:12:12;2.88;;;1.73;;
43142;SDS011;28750;59.842;17.584;2022-11-25T03:14:44;3.72;;;1.98;;
43142;SDS011;28750;59.842;17.584;2022-11-25T03:17:11;2.97;;;2.55;;
43142;SDS011;28750;59.842;17.584;2022-11-25T03:19:39;3.35;;;2.10;;
43142;SDS011;28750;59.842;17.584;2022-11-25T03:22:06;3.85;;;2.10;;
43142;SDS011;28750;59.842;17.584;2022-11-25T03:24:33;2.88;;;2.25;;
43142;SDS011;28750;59.842;17.584;2022-11-25T03:27:00;2.47;;;2.25;;
43142;SDS011;28750;59.842;17.584;2022-11-25T03:29:27;5.47;;;2.75;;
43142;SDS011;28750;59.842;17.584;2022-11-25T03:31:55;2.60;;;2.10;;
43142;SDS011;28750;59.842;17.584;2022-11-25T03:34:30;2.42;;;1.95;;
43142;SDS011;28750;59.842;17.584;2022-11-25T03:37:06;3.17;;;2.20;;
43142;SDS011;28750;59.842;17.584;2022-11-25T03:39:44;3.20;;;2.53;;
43142;SDS011;28750;59.842;17.584;2022-11-25T03:42:22;2.05;;;1.80;;
43142;SDS011;28750;59.842;17.584;2022-11-25T03:44:49;1.88;;;1.70;;
43142;SDS011;28750;59.842;17.584;2022-11-25T03:47:16;2.15;;;1.85;;
43142;SDS011;28750;59.842;17.584;2022-11-25T03:49:43;2.80;;;2.28;;
43142;SDS011;28750;59.842;17.584;2022-11-25T03:52:10;2.90;;;2.00;;
43142;SDS011;28750;59.842;17.584;2022-11-25T03:54:37;2.90;;;1.90;;
43142;SDS011;28750;59.842;17.584;2022-11-25T03:57:04;2.92;;;1.77;;
43142;SDS011;28750;59.842;17.584;2022-11-25T03:59:32;2.50;;;2.10;;
43142;SDS011;28750;59.842;17.584;2022-11-25T04:02:00;2.38;;;2.03;;
43142;SDS011;28750;59.842;17.584;2022-11-25T04:04:28;3.75;;;1.83;;
43142;SDS011;28750;59.842;17.584;2022-11-25T04:06:55;2.72;;;2.05;;
43142;SDS011;28750;59.842;17.584;2022-11-25T04:09:22;2.58;;;1.85;;
43142;SDS011;28750;59.842;17.584;2022-11-25T04:11:50;2.85;;;1.83;;
43142;SDS011;28750;59.842;17.584;2022-11-25T04:14:35;1.88;;;1.67;;
43142;SDS011;28750;59.842;17.584;2022-11-25T04:17:03;2.92;;;1.80;;
43142;SDS011;28750;59.842;17.584;2022-11-25T04:19:31;4.15;;;1.98;;
43142;SDS011;28750;59.842;17.584;2022-11-25T04:21:58;2.72;;;2.45;;
43142;SDS011;28750;59.842;17.584;2022-11-25T04:24:26;2.35;;;1.90;;
43142;SDS011;28750;59.842;17.584;2022-11-25T04:26:54;3.78;;;2.05;;
43142;SDS011;28750;59.842;17.584;2022-11-25T04:29:21;3.58;;;2.50;;
43142;SDS011;28750;59.842;17.584;2022-11-25T04:31:50;3.97;;;2.20;;
43142;SDS011;28750;59.842;17.584;2022-11-25T04:34:17;1.95;;;1.70;;
43142;SDS011;28750;59.842;17.584;2022-11-25T04:36:45;3.15;;;2.22;;
43142;SDS011;28750;59.842;17.584;2022-11-25T04:39:12;2.67;;;2.13;;
43142;SDS011;28750;59.842;17.584;2022-11-25T04:41:39;3.28;;;2.20;;
43142;SDS011;28750;59.842;17.584;2022-11-25T04:44:07;3.28;;;2.13;;
43142;SDS011;28750;59.842;17.584;2022-11-25T04:46:35;2.50;;;2.00;;
43142;SDS011;28750;59.842;17.584;2022-11-25T04:49:05;2.30;;;1.73;;
43142;SDS011;28750;59.842;17.584;2022-11-25T04:51:33;2.72;;;2.20;;
43142;SDS011;28750;59.842;17.584;2022-11-25T04:54:01;3.53;;;1.65;;
43142;SDS011;28750;59.842;17.584;2022-11-25T04:56:28;2.05;;;1.85;;
43142;SDS011;28750;59.842;17.584;2022-11-25T04:58:55;2.35;;;2.13;;
43142;SDS011;28750;59.842;17.584;2022-11-25T05:01:40;3.15;;;2.28;;
43142;SDS011;28750;59.842;17.584;2022-11-25T05:04:07;6.53;;;2.53;;
43142;SDS011;28750;59.842;17.584;2022-11-25T05:06:34;2.65;;;2.08;;
43142;SDS011;28750;59.842;17.584;2022-11-25T05:09:02;3.67;;;2.00;;
43142;SDS011;28750;59.842;17.584;2022-11-25T05:11:30;2.35;;;2.15;;
43142;SDS011;28750;59.842;17.584;2022-11-25T05:13:57;5.00;;;2.33;;
43142;SDS011;28750;59.842;17.584;2022-11-25T05:16:24;3.35;;;2.40;;
43142;SDS011;28750;59.842;17.584;2022-11-25T05:18:53;5.68;;;2.78;;
43142;SDS011;28750;59.842;17.584;2022-11-25T05:21:21;5.40;;;2.67;;
43142;SDS011;28750;59.842;17.584;2022-11-25T05:23:49;3.80;;;2.63;;
43142;SDS011;28750;59.842;17.584;2022-11-25T05:26:17;5.20;;;2.50;;
43142;SDS011;28750;59.842;17.584;2022-11-25T05:28:44;3.58;;;2.30;;
43142;SDS011;28750;59.842;17.584;2022-11-25T05:31:12;4.63;;;2.50;;
43142;SDS011;28750;59.842;17.584;2022-11-25T05:33:39;2.97;;;2.65;;
43142;SDS011;28750;59.842;17.584;2022-11-25T05:36:06;2.95;;;2.42;;
43142;SDS011;28750;59.842;17.584;2022-11-25T05:38:33;3.90;;;3.20;;
43142;SDS011;28750;59.842;17.584;2022-11-25T05:41:01;6.25;;;3.42;;
43142;SDS011;28750;59.842;17.584;2022-11-25T05:43:30;7.63;;;4.70;;
43142;SDS011;28750;59.842;17.584;2022-11-25T05:45:57;21.85;;;12.85;;
43142;SDS011;28750;59.842;17.584;2022-11-25T05:48:24;10.07;;;6.55;;
43142;SDS011;28750;59.842;17.584;2022-11-25T05:50:51;17.83;;;10.55;;
43142;SDS011;28750;59.842;17.584;2022-11-25T05:53:18;9.07;;;5.70;;
43142;SDS011;28750;59.842;17.584;2022-11-25T05:55:52;3.22;;;2.83;;
43142;SDS011;28750;59.842;17.584;2022-11-25T05:58:21;11.43;;;6.30;;
43142;SDS011;28750;59.842;17.584;2022-11-25T06:00:49;6.15;;;4.25;;
43142;SDS011;28750;59.842;17.584;2022-11-25T06:03:16;4.38;;;2.90;;
43142;SDS011;28750;59.842;17.584;2022-11-25T06:05:43;6.03;;;2.88;;
43142;SDS011;28750;59.842;17.584;2022-11-25T06:08:10;3.80;;;3.17;;
43142;SDS011;28750;59.842;17.584;2022-11-25T06:10:38;7.07;;;4.20;;
43142;SDS011;28750;59.842;17.584;2022-11-25T06:13:06;5.35;;;3.72;;
43142;SDS011;28750;59.842;17.584;2022-11-25T06:15:33;4.00;;;3.08;;
43142;SDS011;28750;59.842;17.584;2022-11-25T06:18:05;3.25;;;2.67;;
43142;SDS011;28750;59.842;17.584;2022-11-25T06:20:32;3.25;;;2.70;;
43142;SDS011;28750;59.842;17.584;2022-11-25T06:22:59;3.17;;;2.63;;
43142;SDS011;28750;59.842;17.584;2022-11-25T06:25:26;3.53;;;2.42;;
43142;SDS011;28750;59.842;17.584;2022-11-25T06:27:53;3.63;;;3.00;;
43142;SDS011;28750;59.842;17.584;2022-11-25T06:30:20;4.35;;;3.10;;
43142;SDS011;28750;59.842;17.584;2022-11-25T06:32:47;4.40;;;3.58;;
43142;SDS011;28750;59.842;17.584;2022-11-25T06:35:14;5.03;;;4.38;;
43142;SDS011;28750;59.842;17.584;2022-11-25T06:37:41;7.88;;;3.40;;
43142;SDS011;28750;59.842;17.584;2022-11-25T06:40:08;3.67;;;2.50;;
43142;SDS011;28750;59.842;17.584;2022-11-25T06:42:36;3.78;;;2.55;;
43142;SDS011;28750;59.842;17.584;2022-11-25T06:45:04;3.30;;;2.60;;
43142;SDS011;28750;59.842;17.584;2022-11-25T06:47:32;5.28;;;2.72;;
43142;SDS011;28750;59.842;17.584;2022-11-25T06:49:58;3.63;;;2.67;;
43142;SDS011;28750;59.842;17.584;2022-11-25T06:52:25;4.70;;;3.80;;
43142;SDS011;28750;59.842;17.584;2022-11-25T06:54:54;4.57;;;2.92;;
43142;SDS011;28750;59.842;17.584;2022-11-25T06:57:21;3.88;;;2.85;;
43142;SDS011;28750;59.842;17.584;2022-11-25T06:59:48;3.70;;;2.80;;
43142;SDS011;28750;59.842;17.584;2022-11-25T07:02:16;5.18;;;3.45;;
43142;SDS011;28750;59.842;17.584;2022-11-25T07:04:43;4.32;;;3.13;;
43142;SDS011;28750;59.842;17.584;2022-11-25T07:07:12;2.17;;;1.30;;
43142;SDS011;28750;59.842;17.584;2022-11-25T07:09:50;4.40;;;3.45;;
43142;SDS011;28750;59.842;17.584;2022-11-25T07:12:29;5.50;;;3.35;;
43142;SDS011;28750;59.842;17.584;2022-11-25T07:15:08;5.55;;;4.00;;
43142;SDS011;28750;59.842;17.584;2022-11-25T07:17:48;6.47;;;5.00;;
43142;SDS011;28750;59.842;17.584;2022-11-25T07:20:32;67.75;;;26.83;;
43142;SDS011;28750;59.842;17.584;2022-11-25T07:23:14;32.90;;;12.40;;
43142;SDS011;28750;59.842;17.584;2022-11-25T07:25:52;13.32;;;5.85;;
43142;SDS011;28750;59.842;17.584;2022-11-25T07:28:19;4.00;;;2.13;;
43142;SDS011;28750;59.842;17.584;2022-11-25T07:30:46;5.60;;;3.22;;
43142;SDS011;28750;59.842;17.584;2022-11-25T07:33:24;4.72;;;2.88;;
43142;SDS011;28750;59.842;17.584;2022-11-25T07:36:05;4.30;;;3.25;;
43142;SDS011;28750;59.842;17.584;2022-11-25T07:38:44;5.65;;;3.10;;
43142;SDS011;28750;59.842;17.584;2022-11-25T07:41:12;5.25;;;3.35;;
43142;SDS011;28750;59.842;17.584;2022-11-25T07:43:43;6.32;;;3.42;;
43142;SDS011;28750;59.842;17.584;2022-11-25T07:46:11;3.90;;;2.90;;
43142;SDS011;28750;59.842;17.584;2022-11-25T07:48:42;6.38;;;3.53;;
43142;SDS011;28750;59.842;17.584;2022-11-25T07:51:14;4.75;;;3.08;;
43142;SDS011;28750;59.842;17.584;2022-11-25T07:53:46;5.93;;;3.03;;
43142;SDS011;28750;59.842;17.584;2022-11-25T07:56:16;7.72;;;3.13;;
43142;SDS011;28750;59.842;17.584;2022-11-25T07:58:51;4.53;;;3.72;;
43142;SDS011;28750;59.842;17.584;2022-11-25T08:01:29;8.32;;;3.30;;
43142;SDS011;28750;59.842;17.584;2022-11-25T08:04:02;3.22;;;2.90;;
43142;SDS011;28750;59.842;17.584;2022-11-25T08:06:29;4.35;;;3.35;;
43142;SDS011;28750;59.842;17.584;2022-11-25T08:08:56;8.60;;;3.53;;
43142;SDS011;28750;59.842;17.584;2022-11-25T08:11:26;3.45;;;3.00;;
43142;SDS011;28750;59.842;17.584;2022-11-25T08:13:54;3.22;;;2.83;;
43142;SDS011;28750;59.842;17.584;2022-11-25T08:16:22;3.88;;;2.90;;
43142;SDS011;28750;59.842;17.584;2022-11-25T08:18:52;5.13;;;3.35;;
43142;SDS011;28750;59.842;17.584;2022-11-25T08:21:20;5.22;;;3.78;;
43142;SDS011;28750;59.842;17.584;2022-11-25T08:23:48;5.15;;;3.15;;
43142;SDS011;28750;59.842;17.584;2022-11-25T08:26:34;3.83;;;2.63;;
43142;SDS011;28750;59.842;17.584;2022-11-25T08:29:02;4.72;;;3.00;;
43142;SDS011;28750;59.842;17.584;2022-11-25T08:31:32;3.65;;;2.95;;
43142;SDS011;28750;59.842;17.584;2022-11-25T08:34:00;4.05;;;3.05;;
43142;SDS011;28750;59.842;17.584;2022-11-25T08:36:28;4.70;;;2.90;;
43142;SDS011;28750;59.842;17.584;2022-11-25T08:38:59;4.13;;;2.83;;
43142;SDS011;28750;59.842;17.584;2022-11-25T08:41:35;5.82;;;3.47;;
43142;SDS011;28750;59.842;17.584;2022-11-25T08:44:05;5.78;;;2.90;;
43142;SDS011;28750;59.842;17.584;2022-11-25T08:46:39;4.65;;;3.28;;
43142;SDS011;28750;59.842;17.584;2022-11-25T08:49:16;6.60;;;3.20;;
43142;SDS011;28750;59.842;17.584;2022-11-25T08:51:52;5.07;;;3.30;;
43142;SDS011;28750;59.842;17.584;2022-11-25T08:54:27;8.15;;;2.65;;
43142;SDS011;28750;59.842;17.584;2022-11-25T08:56:59;4.97;;;3.25;;
43142;SDS011;28750;59.842;17.584;2022-11-25T08:59:38;6.35;;;3.20;;
43142;SDS011;28750;59.842;17.584;2022-11-25T09:02:14;5.13;;;3.30;;
43142;SDS011;28750;59.842;17.584;2022-11-25T09:04:54;4.85;;;3.13;;
43142;SDS011;28750;59.842;17.584;2022-11-25T09:07:33;6.57;;;3.00;;
43142;SDS011;28750;59.842;17.584;2022-11-25T09:10:12;4.82;;;2.85;;
43142;SDS011;28750;59.842;17.584;2022-11-25T09:12:48;6.22;;;3.33;;
43142;SDS011;28750;59.842;17.584;2022-11-25T09:15:31;5.70;;;3.30;;
43142;SDS011;28750;59.842;17.584;2022-11-25T09:18:11;4.88;;;3.30;;
43142;SDS011;28750;59.842;17.584;2022-11-25T09:20:58;4.47;;;3.60;;
43142;SDS011;28750;59.842;17.584;2022-11-25T09:23:44;6.63;;;3.47;;
43142;SDS011;28750;59.842;17.584;2022-11-25T09:26:25;5.95;;;3.60;;
43142;SDS011;28750;59.842;17.584;2022-11-25T09:29:06;4.85;;;3.20;;
43142;SDS011;28750;59.842;17.584;2022-11-25T09:31:33;4.95;;;3.25;;
43142;SDS011;28750;59.842;17.584;2022-11-25T09:34:00;6.03;;;3.00;;
43142;SDS011;28750;59.842;17.584;2022-11-25T09:36:27;7.30;;;4.35;;
43142;SDS011;28750;59.842;17.584;2022-11-25T09:38:54;4.97;;;3.72;;
43142;SDS011;28750;59.842;17.584;2022-11-25T09:55:50;6.70;;;4.18;;
43142;SDS011;28750;59.842;17.584;2022-11-25T10:01:26;6.30;;;4.13;;
43142;SDS011;28750;59.842;17.584;2022-11-25T10:04:06;5.93;;;4.22;;
43142;SDS011;28750;59.842;17.584;2022-11-25T10:07:00;5.40;;;4.05;;
43142;SDS011;28750;59.842;17.584;2022-11-25T10:09:30;9.18;;;4.10;;
43142;SDS011;28750;59.842;17.584;2022-11-25T10:12:10;6.80;;;3.97;;
43142;SDS011;28750;59.842;17.584;2022-11-25T10:14:46;5.85;;;4.35;;
43142;SDS011;28750;59.842;17.584;2022-11-25T10:17:17;4.93;;;3.80;;
43142;SDS011;28750;59.842;17.584;2022-11-25T10:22:27;6.68;;;3.60;;
43142;SDS011;28750;59.842;17.584;2022-11-25T10:27:45;6.10;;;4.35;;
43142;SDS011;28750;59.842;17.584;2022-11-25T10:30:32;4.88;;;3.53;;
43142;SDS011;28750;59.842;17.584;2022-11-25T10:33:28;5.57;;;3.53;;
43142;SDS011;28750;59.842;17.584;2022-11-25T10:39:26;6.60;;;4.20;;
43142;SDS011;28750;59.842;17.584;2022-11-25T10:42:07;6.82;;;4.45;;
43142;SDS011;28750;59.842;17.584;2022-11-25T10:44:59;6.63;;;4.68;;
43142;SDS011;28750;59.842;17.584;2022-11-25T10:47:43;6.45;;;4.55;;
43142;SDS011;28750;59.842;17.584;2022-11-25T10:53:23;6.05;;;4.65;;
43142;SDS011;28750;59.842;17.584;2022-11-25T10:55:59;7.22;;;5.35;;
43142;SDS011;28750;59.842;17.584;2022-11-25T11:01:05;8.40;;;5.13;;
43142;SDS011;28750;59.842;17.584;2022-11-25T11:03:33;6.70;;;4.40;;
43142;SDS011;28750;59.842;17.584;2022-11-25T11:06:00;7.85;;;4.30;;
43142;SDS011;28750;59.842;17.584;2022-11-25T11:08:37;8.35;;;5.25;;
43142;SDS011;28750;59.842;17.584;2022-11-25T11:13:43;7.30;;;5.07;;
43142;SDS011;28750;59.842;17.584;2022-11-25T11:16:35;8.35;;;5.97;;
43142;SDS011;28750;59.842;17.584;2022-11-25T11:19:02;10.25;;;6.38;;
43142;SDS011;28750;59.842;17.584;2022-11-25T11:21:32;7.43;;;5.68;;
43142;SDS011;28750;59.842;17.584;2022-11-25T11:24:02;8.13;;;4.80;;
43142;SDS011;28750;59.842;17.584;2022-11-25T11:27:00;10.27;;;5.30;;
43142;SDS011;28750;59.842;17.584;2022-11-25T11:29:32;7.00;;;5.22;;
43142;SDS011;28750;59.842;17.584;2022-11-25T11:32:01;7.68;;;4.93;;
43142;SDS011;28750;59.842;17.584;2022-11-25T11:37:28;7.88;;;4.57;;
43142;SDS011;28750;59.842;17.584;2022-11-25T11:45:33;8.52;;;5.47;;
43142;SDS011;28750;59.842;17.584;2022-11-25T11:48:33;8.07;;;5.45;;
43142;SDS011;28750;59.842;17.584;2022-11-25T11:54:21;9.23;;;4.10;;
43142;SDS011;28750;59.842;17.584;2022-11-25T11:57:44;7.13;;;4.82;;
43142;SDS011;28750;59.842;17.584;2022-11-25T12:00:18;8.75;;;5.38;;
43142;SDS011;28750;59.842;17.584;2022-11-25T12:03:03;6.30;;;4.70;;
43142;SDS011;28750;59.842;17.584;2022-11-25T12:05:51;7.97;;;4.78;;
43142;SDS011;28750;59.842;17.584;2022-11-25T12:11:49;8.82;;;5.10;;
43142;SDS011;28750;59.842;17.584;2022-11-25T12:14:44;7.07;;;4.95;;
43142;SDS011;28750;59.842;17.584;2022-11-25T12:17:41;6.60;;;4.95;;
43142;SDS011;28750;59.842;17.584;2022-11-25T12:27:05;8.43;;;4.77;;
43142;SDS011;28750;59.842;17.584;2022-11-25T12:29:43;7.35;;;5.05;;
43142;SDS011;28750;59.842;17.584;2022-11-25T12:41:27;8.07;;;5.07;;
43142;SDS011;28750;59.842;17.584;2022-11-25T12:47:08;8.02;;;4.93;;
43142;SDS011;28750;59.842;17.584;2022-11-25T12:49:47;9.15;;;4.90;;
43142;SDS011;28750;59.842;17.584;2022-11-25T12:52:41;9.13;;;5.65;;
43142;SDS011;28750;59.842;17.584;2022-11-25T12:55:23;9.13;;;5.45;;
43142;SDS011;28750;59.842;17.584;2022-11-25T13:06:40;8.15;;;5.18;;
43142;SDS011;28750;59.842;17.584;2022-11-25T13:13:08;9.63;;;5.88;;
43142;SDS011;28750;59.842;17.584;2022-11-25T13:15:46;9.55;;;5.45;;
43142;SDS011;28750;59.842;17.584;2022-11-25T13:18:21;10.93;;;5.65;;
43142;SDS011;28750;59.842;17.584;2022-11-25T13:20:51;10.85;;;5.85;;
43142;SDS011;28750;59.842;17.584;2022-11-25T13:23:24;8.95;;;5.55;;
43142;SDS011;28750;59.842;17.584;2022-11-25T13:25:53;9.27;;;5.97;;
43142;SDS011;28750;59.842;17.584;2022-11-25T13:28:56;8.75;;;6.15;;
43142;SDS011;28750;59.842;17.584;2022-11-25T13:31:31;8.00;;;5.60;;
43142;SDS011;28750;59.842;17.584;2022-11-25T13:34:35;8.80;;;6.05;;
43142;SDS011;28750;59.842;17.584;2022-11-25T13:37:49;9.17;;;5.80;;
43142;SDS011;28750;59.842;17.584;2022-11-25T13:42:57;9.40;;;6.28;;
43142;SDS011;28750;59.842;17.584;2022-11-25T13:45:37;9.90;;;7.00;;
43142;SDS011;28750;59.842;17.584;2022-11-25T13:48:16;8.20;;;5.80;;
43142;SDS011;28750;59.842;17.584;2022-11-25T13:50:46;9.48;;;6.90;;
43142;SDS011;28750;59.842;17.584;2022-11-25T13:55:51;16.75;;;7.20;;
43142;SDS011;28750;59.842;17.584;2022-11-25T13:58:25;11.15;;;6.82;;
43142;SDS011;28750;59.842;17.584;2022-11-25T14:01:01;9.80;;;6.82;;
43142;SDS011;28750;59.842;17.584;2022-11-25T14:17:24;8.02;;;5.20;;
43142;SDS011;28750;59.842;17.584;2022-11-25T14:23:00;10.07;;;6.40;;
43142;SDS011;28750;59.842;17.584;2022-11-25T14:25:32;10.40;;;6.93;;
43142;SDS011;28750;59.842;17.584;2022-11-25T14:28:09;10.95;;;6.72;;
43142;SDS011;28750;59.842;17.584;2022-11-25T14:30:54;8.88;;;6.95;;
43142;SDS011;28750;59.842;17.584;2022-11-25T14:33:41;10.73;;;6.80;;
43142;SDS011;28750;59.842;17.584;2022-11-25T14:36:37;9.75;;;5.80;;
43142;SDS011;28750;59.842;17.584;2022-11-25T14:39:08;12.45;;;6.88;;
43142;SDS011;28750;59.842;17.584;2022-11-25T14:42:13;10.27;;;6.15;;
43142;SDS011;28750;59.842;17.584;2022-11-25T14:44:47;10.48;;;6.88;;
43142;SDS011;28750;59.842;17.584;2022-11-25T14:47:14;9.43;;;6.18;;
43142;SDS011;28750;59.842;17.584;2022-11-25T14:49:48;10.65;;;6.50;;
43142;SDS011;28750;59.842;17.584;2022-11-25T14:52:21;10.63;;;6.85;;
43142;SDS011;28750;59.842;17.584;2022-11-25T14:54:51;10.05;;;6.85;;
43142;SDS011;28750;59.842;17.584;2022-11-25T14:57:21;9.93;;;6.32;;
43142;SDS011;28750;59.842;17.584;2022-11-25T14:59:52;10.40;;;7.07;;
43142;SDS011;28750;59.842;17.584;2022-11-25T15:02:29;14.75;;;7.00;;
43142;SDS011;28750;59.842;17.584;2022-11-25T15:05:07;8.27;;;6.03;;
43142;SDS011;28750;59.842;17.584;2022-11-25T15:07:34;8.90;;;6.05;;
43142;SDS011;28750;59.842;17.584;2022-11-25T15:10:01;7.47;;;5.40;;
43142;SDS011;28750;59.842;17.584;2022-11-25T15:12:30;7.82;;;5.18;;
43142;SDS011;28750;59.842;17.584;2022-11-25T15:14:59;8.50;;;5.43;;
43142;SDS011;28750;59.842;17.584;2022-11-25T15:17:33;6.85;;;5.15;;
43142;SDS011;28750;59.842;17.584;2022-11-25T15:20:11;11.63;;;5.38;;
43142;SDS011;28750;59.842;17.584;2022-11-25T15:25:18;8.68;;;5.10;;
43142;SDS011;28750;59.842;17.584;2022-11-25T15:27:47;9.32;;;5.43;;
43142;SDS011;28750;59.842;17.584;2022-11-25T15:32:48;9.50;;;6.65;;
43142;SDS011;28750;59.842;17.584;2022-11-25T15:35:17;6.72;;;5.07;;
43142;SDS011;28750;59.842;17.584;2022-11-25T15:37:46;8.37;;;4.83;;
43142;SDS011;28750;59.842;17.584;2022-11-25T15:40:55;6.70;;;4.95;;
43142;SDS011;28750;59.842;17.584;2022-11-25T15:43:24;7.40;;;4.63;;
43142;SDS011;28750;59.842;17.584;2022-11-25T15:45:54;7.18;;;5.32;;
43142;SDS011;28750;59.842;17.584;2022-11-25T15:48:28;7.15;;;5.00;;
43142;SDS011;28750;59.842;17.584;2022-11-25T15:51:06;5.25;;;4.05;;
43142;SDS011;28750;59.842;17.584;2022-11-25T15:53:55;7.47;;;4.90;;
43142;SDS011;28750;59.842;17.584;2022-11-25T15:56:44;6.10;;;4.53;;
43142;SDS011;28750;59.842;17.584;2022-11-25T15:59:36;6.07;;;4.35;;
43142;SDS011;28750;59.842;17.584;2022-11-25T16:13:03;6.47;;;5.05;;
43142;SDS011;28750;59.842;17.584;2022-11-25T16:15:58;6.00;;;4.65;;
43142;SDS011;28750;59.842;17.584;2022-11-25T16:19:04;8.13;;;5.72;;
43142;SDS011;28750;59.842;17.584;2022-11-25T16:29:00;9.20;;;5.40;;
43142;SDS011;28750;59.842;17.584;2022-11-25T16:31:34;8.63;;;5.38;;
43142;SDS011;28750;59.842;17.584;2022-11-25T16:34:14;9.32;;;5.07;;
43142;SDS011;28750;59.842;17.584;2022-11-25T16:36:46;8.38;;;5.40;;
43142;SDS011;28750;59.842;17.584;2022-11-25T16:39:13;6.32;;;4.53;;
43142;SDS011;28750;59.842;17.584;2022-11-25T16:41:40;9.95;;;6.15;;
43142;SDS011;28750;59.842;17.584;2022-11-25T16:44:17;6.97;;;5.13;;
43142;SDS011;28750;59.842;17.584;2022-11-25T16:46:47;6.32;;;4.88;;
43142;SDS011;28750;59.842;17.584;2022-11-25T16:49:16;8.40;;;5.03;;
43142;SDS011;28750;59.842;17.584;2022-11-25T16:51:45;8.23;;;4.65;;
43142;SDS011;28750;59.842;17.584;2022-11-25T16:54:14;7.45;;;4.72;;
43142;SDS011;28750;59.842;17.584;2022-11-25T16:56:44;5.80;;;4.80;;
43142;SDS011;28750;59.842;17.584;2022-11-25T16:59:21;6.20;;;4.82;;
43142;SDS011;28750;59.842;17.584;2022-11-25T17:02:08;8.32;;;4.82;;
43142;SDS011;28750;59.842;17.584;2022-11-25T17:04:43;6.35;;;5.03;;
43142;SDS011;28750;59.842;17.584;2022-11-25T17:07:11;7.57;;;5.15;;
43142;SDS011;28750;59.842;17.584;2022-11-25T17:09:40;9.27;;;5.38;;
43142;SDS011;28750;59.842;17.584;2022-11-25T17:12:13;8.00;;;5.32;;
43142;SDS011;28750;59.842;17.584;2022-11-25T17:14:47;7.47;;;4.63;;
43142;SDS011;28750;59.842;17.584;2022-11-25T17:17:17;7.88;;;5.07;;
43142;SDS011;28750;59.842;17.584;2022-11-25T17:19:47;8.57;;;5.50;;
43142;SDS011;28750;59.842;17.584;2022-11-25T17:22:19;8.77;;;6.10;;
43142;SDS011;28750;59.842;17.584;2022-11-25T17:24:47;9.48;;;6.25;;
43142;SDS011;28750;59.842;17.584;2022-11-25T17:27:16;7.57;;;5.85;;